Airfield :
LOGIN :

Register | Disclaimer

   EN    FR    IT 

 










Legend :    VFR   Marginal VFR   IFR   Intensive IFR   Very Intensive IFR
Visi :
Ceiling :
>= 8 km
>= 3000ft
5 to 8 km
1000 to 3000 ft
1500m to 5 km
500 to 1000 ft
800 to 1500m
200 to 500 ft
< 800m
< 200 ft
Symbols :   Thunderstorms  Fog  Heavy snow  Heavy precipitations  Wind > 20 kt
SIGMETs :     Misc.  Thunderstorms  Icing  Turbulence  Mountain Waves  Volcanic Ashes







- Airport Elevation : 375 ft
- IATA code : MST


EHBK - Maastricht Aachen

CURRENT METAR :
  • 230055Z AUTO VRB01KT 9999 NCD 17/15 Q1022

EXPIRED METARs :
  • 230025Z AUTO 14003KT 9999 NCD 18/14 Q1022
  • 222355Z AUTO 14002KT 9999 NCD 19/15 Q1022
  • 222325Z AUTO 14002KT 9999 NCD 20/14 Q1022
  • 222255Z AUTO 11002KT 9999 NSC 20/15 Q1022
  • 222225Z AUTO 08001KT 9999 NSC 21/14 Q1023

TAF TAF EHBK
Valid from the 23 at 00:00 until the 24 at 06:00 UTC


222309Z 2300/2406 12004KT CAVOK
No reported NOTAMs for that airfield.



MET'MAP, your aeronautical weather chart ! - Copyright ORBIFLY December 2007 - Disclaimer

ORBIFLY MET'MAP TEAM :

Programming & Development : Alexandra Zaïnal
Concept & Development : Baudouin d'Aumeries
Co-Development & Prog : Marc-Olivier Méhu
Technical & hardware support : Manuel Goepfert

Contact : metmap@orbifly.com




SOURCES & CREDITS :

   NOAA